Airfield :
LOGIN :

Register | Disclaimer

   EN    FR    IT 

 










Legend :    VFR   Marginal VFR   IFR   Intensive IFR   Very Intensive IFR
Visi :
Ceiling :
>= 8 km
>= 3000ft
5 to 8 km
1000 to 3000 ft
1500m to 5 km
500 to 1000 ft
800 to 1500m
200 to 500 ft
< 800m
< 200 ft
Symbols :   Thunderstorms  Fog  Heavy snow  Heavy precipitations  Wind > 20 kt
SIGMETs :     Misc.  Thunderstorms  Icing  Turbulence  Mountain Waves  Volcanic Ashes






- Airport Elevation : 1416 ft
- IATA code : ZRH


LSZH - Zurich

CURRENT METAR :
  • 121320Z 25009KT 180V280 9999 FEW020 SCT028 BKN058 04/M01 Q1005 NOSIG

EXPIRED METARs :
  • 121250Z 26006KT 210V290 9999 FEW020 SCT025 BKN058 04/M00 Q1005 NOSIG
  • 121220Z 25006KT 220V280 9999 FEW018 SCT022 BKN050 04/00 Q1006 NOSIG
  • 121150Z 25007KT 220V280 9999 FEW018 SCT022 BKN050 04/M00 Q1006 NOSIG
  • 121120Z 24009KT 9999 FEW014 SCT020 BKN048 04/01 Q1007 NOSIG

TAF TAF LSZH
Valid from the 12 at 12:00 until the 13 at 18:00 UTC


121125Z 1212/1318 24009KT 9999 FEW012 SCT018 BKN050 TX04/1214Z TN00/1301Z TX04/1315Z
BECMG 1215/1217 VRB03KT
TEMPO 1223/1311 4000 RASN BKN014
PROB40
TEMPO 1300/1310 1200 SN BKN008
TEMPO 1309/1318 SHRA BKN014
BECMG 1309/1312 24010KT
TEMPO 1310/1318 24015G25KT
PROB30
TEMPO 1312/1318 1200 TSRASN BKN014CB
ATIS : +41 43 816 2295 (DEP) +41 43 816 2294 (ARR)



MET'MAP, your aeronautical weather chart ! - Copyright ORBIFLY December 2007 - Disclaimer

ORBIFLY MET'MAP TEAM :

Programming & Development : Alexandra Zaïnal
Concept & original design : Baudouin d'Aumeries
Assistance for programming : Marc-Olivier Méhu
Technical & hardware support : Manuel Goepfert

Contact : metmap@orbifly.com




SOURCES & CREDITS :

   NOAA